Flight Information

DEPARTURE
BAKERSFIELD, CA
Elevation:
509
Runways:
12L/30R - 10849x150 - ASPH-G
12R/30L - 7700x100 - ASPH-E
ATIS:
118.6 661-399-9425
Ground:
121.7
Tower:
BAKERSFIELD TOWER 118.1
DESTINATION
,
Elevation:
TPA:
1000 (est.)


6798.4 NM72° True-14° Var57° HDG

Flight Plan:
(click to file on line)

1. Type
2. Aircraft Identification
3. Aircraft Type / Special Equipment
4. True Airspeed
kts
5. Departure Airport
(ICAO code)
6. Arriving Airport
(ICAO code)
7. Cruising Altitude
ft
8. Alternate Airport
(ICAO code)
9. Route of Flight
10. Remarks


00:00:00 Departure ATIS: Destination ATIS:

Clearance Limit:
Route:
Altitude: Expect in minutes
Frequency:
Transponder: (7500 Hijack / 7600 Lost Comms / 7700 Emergency)


KBFL 281254Z AUTO 14003KT 9SM CLR 20/11 A2992 RMK AO2 SLP126 T02000111 TSNO
Time: 2020-09-28T12:54:00Z
1601299039
Winds: 140 @ 3 kts
Visibility: 9.0 sm
Clouds (AGL): CLR
Temperature: 20.0 C
Dew Point: 11.1 C
Pressure: 29.920275 in Hgbr


Notes:

Data extracted from FAA Digital Chart Supplement. Effective: 0901Z Thursday, Sep 10, 2020 to 0901Z Thursday, Nov 5, 2020
Current ATIS data is provided courtisy of PilotEdge.